createdAt,value
2023-05-12T00:01:44.045Z,8.06
2023-05-12T00:04:10.585Z,8.08
2023-05-12T00:06:37.184Z,7.99
2023-05-12T00:09:03.962Z,8.04
2023-05-12T00:11:30.416Z,8.08
2023-05-12T00:13:56.988Z,8.05
2023-05-12T00:16:23.452Z,8.09
2023-05-12T00:18:49.920Z,8.06
2023-05-12T00:21:16.529Z,8.08
2023-05-12T00:23:43.079Z,8.01
2023-05-12T00:26:09.589Z,7.96
2023-05-12T00:28:35.961Z,7.98
2023-05-12T00:31:02.694Z,8.00
2023-05-12T00:33:29.368Z,7.94
2023-05-12T00:35:55.881Z,7.98
2023-05-12T00:38:22.280Z,8.00
2023-05-12T00:40:48.681Z,8.00
2023-05-12T00:43:15.158Z,7.99
2023-05-12T00:45:41.781Z,8.00
2023-05-12T00:48:08.220Z,7.96
2023-05-12T00:50:34.839Z,7.99
2023-05-12T00:53:01.381Z,7.99
2023-05-12T00:55:29.138Z,8.02
2023-05-12T00:57:55.794Z,8.03
2023-05-12T01:00:22.568Z,8.02
2023-05-12T01:02:49.222Z,7.98
2023-05-12T01:05:15.900Z,8.01
2023-05-12T01:07:42.433Z,7.97
2023-05-12T01:10:16.947Z,7.98
2023-05-12T01:12:43.429Z,8.01
2023-05-12T01:15:10.180Z,8.04
2023-05-12T01:17:36.657Z,8.03
2023-05-12T01:20:03.400Z,8.02
2023-05-12T01:22:29.862Z,7.99
2023-05-12T01:24:59.906Z,8.01
2023-05-12T01:27:26.560Z,7.99
2023-05-12T01:29:53.216Z,8.03
2023-05-12T01:32:19.797Z,8.02
2023-05-12T01:34:46.222Z,8.03
2023-05-12T01:37:12.990Z,7.98
2023-05-12T01:39:39.474Z,8.00
2023-05-12T01:42:06.191Z,7.93
2023-05-12T01:44:32.647Z,7.99
2023-05-12T01:46:59.316Z,8.01
2023-05-12T01:49:25.833Z,8.00
2023-05-12T01:51:52.276Z,7.93
2023-05-12T01:54:18.756Z,7.88
2023-05-12T01:56:45.202Z,7.91
2023-05-12T01:59:11.708Z,7.94
2023-05-12T02:01:38.283Z,7.93
2023-05-12T02:04:04.926Z,7.98
2023-05-12T02:06:31.524Z,7.91
2023-05-12T02:08:57.987Z,7.88
2023-05-12T02:11:24.476Z,7.84
2023-05-12T02:13:53.073Z,7.95
2023-05-12T02:16:19.533Z,7.94
2023-05-12T02:18:45.948Z,7.96
2023-05-12T02:21:12.442Z,7.93
2023-05-12T02:23:39.006Z,7.92
2023-05-12T02:26:05.492Z,7.93
2023-05-12T02:28:31.930Z,7.92
2023-05-12T02:30:58.355Z,7.94
2023-05-12T02:33:24.847Z,7.87
2023-05-12T02:35:51.357Z,7.92
2023-05-12T02:38:17.932Z,8.00
2023-05-12T02:40:44.401Z,7.94
2023-05-12T02:43:10.938Z,7.98
2023-05-12T02:45:37.615Z,7.96
2023-05-12T02:48:04.317Z,7.91
2023-05-12T02:50:30.902Z,7.91
2023-05-12T02:52:57.427Z,7.97
2023-05-12T02:55:23.855Z,7.94
2023-05-12T02:57:50.296Z,7.94
2023-05-12T03:00:16.836Z,7.96
2023-05-12T03:02:43.441Z,7.95
2023-05-12T03:05:10.070Z,7.95
2023-05-12T03:07:36.469Z,7.96
2023-05-12T03:10:02.948Z,7.95
2023-05-12T03:12:29.484Z,7.89
2023-05-12T03:14:55.962Z,7.91
2023-05-12T03:17:22.475Z,7.91
2023-05-12T03:19:48.919Z,7.96
2023-05-12T03:22:15.457Z,8.01
2023-05-12T03:24:42.015Z,7.99
2023-05-12T03:27:08.483Z,7.99
2023-05-12T03:29:34.928Z,7.93
2023-05-12T03:32:01.566Z,7.94
2023-05-12T03:34:28.017Z,7.94
2023-05-12T03:36:54.473Z,7.96
2023-05-12T03:39:20.914Z,8.03
2023-05-12T03:41:47.586Z,8.03
2023-05-12T03:44:14.000Z,8.01
2023-05-12T03:46:40.531Z,8.03
2023-05-12T03:49:06.988Z,7.94
2023-05-12T03:51:33.417Z,7.96
2023-05-12T03:53:59.811Z,7.90
2023-05-12T03:56:26.283Z,7.91
2023-05-12T03:58:52.726Z,7.91
2023-05-12T04:01:19.097Z,7.94
2023-05-12T04:03:45.751Z,7.98
2023-05-12T04:06:12.278Z,7.93
2023-05-12T04:08:41.685Z,7.95
2023-05-12T04:11:08.433Z,8.02
2023-05-12T04:13:34.923Z,8.01
2023-05-12T04:16:01.420Z,8.04
2023-05-12T04:18:29.004Z,8.04
2023-05-12T04:20:55.579Z,8.00
2023-05-12T04:23:23.030Z,8.00
2023-05-12T04:25:49.623Z,8.03
2023-05-12T04:28:16.172Z,7.99
2023-05-12T04:30:42.688Z,7.93
2023-05-12T04:33:09.285Z,8.01
2023-05-12T04:35:35.941Z,8.00
2023-05-12T04:38:02.372Z,8.05
2023-05-12T04:40:28.908Z,8.02
2023-05-12T04:42:55.297Z,8.00
2023-05-12T04:45:22.103Z,8.07
2023-05-12T04:47:48.735Z,8.12
2023-05-12T04:50:15.199Z,8.07
2023-05-12T04:52:41.833Z,8.08
2023-05-12T04:55:08.511Z,8.05
2023-05-12T04:57:35.015Z,8.09
2023-05-12T05:00:01.548Z,8.15
2023-05-12T05:02:28.042Z,8.11
2023-05-12T05:04:54.639Z,8.18
2023-05-12T05:07:21.144Z,8.17
2023-05-12T05:09:47.523Z,8.07
2023-05-12T05:12:13.977Z,8.06
2023-05-12T05:14:40.496Z,8.03
2023-05-12T05:17:06.910Z,8.10
2023-05-12T05:19:46.158Z,8.08
2023-05-12T05:22:19.978Z,8.16
2023-05-12T05:24:46.580Z,8.20
2023-05-12T05:27:13.072Z,8.22
2023-05-12T05:29:39.648Z,8.28
2023-05-12T05:32:06.216Z,8.32
2023-05-12T05:34:32.937Z,8.28
2023-05-12T05:36:59.532Z,8.29
2023-05-12T05:39:25.954Z,8.33
2023-05-12T05:41:52.309Z,8.34
2023-05-12T05:44:18.812Z,8.38
2023-05-12T05:46:45.214Z,8.42
2023-05-12T05:49:11.646Z,8.45
2023-05-12T05:51:38.157Z,8.44
2023-05-12T05:54:04.810Z,8.46
2023-05-12T05:56:31.244Z,8.43
2023-05-12T05:58:57.728Z,8.48
2023-05-12T06:01:24.126Z,8.51
2023-05-12T06:03:50.547Z,8.52
2023-05-12T06:06:17.072Z,8.56
2023-05-12T06:08:43.653Z,8.57
2023-05-12T06:11:10.347Z,8.66
2023-05-12T06:13:36.825Z,8.65
2023-05-12T06:16:03.303Z,8.73
2023-05-12T06:18:29.724Z,8.66
2023-05-12T06:20:56.238Z,8.68
2023-05-12T06:23:22.654Z,8.64
2023-05-12T06:25:49.278Z,8.68
2023-05-12T06:28:15.780Z,8.65
2023-05-12T06:30:42.265Z,8.68
2023-05-12T06:33:08.883Z,8.75
2023-05-12T06:35:35.497Z,8.72
2023-05-12T06:38:01.906Z,8.72
2023-05-12T06:40:28.331Z,8.73
2023-05-12T06:42:54.833Z,8.77
2023-05-12T06:45:21.677Z,8.85
2023-05-12T06:47:48.334Z,8.79
2023-05-12T06:50:14.789Z,8.86
2023-05-12T06:52:41.190Z,9.06
2023-05-12T06:55:07.778Z,9.18
2023-05-12T06:57:34.266Z,9.22
2023-05-12T07:00:00.658Z,9.29
2023-05-12T07:02:27.343Z,9.27
2023-05-12T07:04:53.878Z,9.41
2023-05-12T07:07:20.336Z,9.43
2023-05-12T07:09:46.786Z,9.40
2023-05-12T07:12:13.321Z,9.41
2023-05-12T07:14:39.763Z,9.44
2023-05-12T07:17:06.232Z,9.33
2023-05-12T07:19:32.748Z,9.36
2023-05-12T07:21:59.397Z,9.40
2023-05-12T07:24:25.858Z,9.46
2023-05-12T07:26:52.337Z,9.56
2023-05-12T07:29:18.749Z,9.38
2023-05-12T07:31:45.179Z,9.40
2023-05-12T07:34:11.857Z,9.42
2023-05-12T07:36:38.341Z,9.43
2023-05-12T07:39:04.848Z,9.38
2023-05-12T07:41:32.538Z,9.31
2023-05-12T07:44:01.147Z,9.26
2023-05-12T07:46:27.660Z,9.29
2023-05-12T07:48:54.161Z,9.48
2023-05-12T07:51:20.567Z,9.44
2023-05-12T07:53:46.989Z,9.42
2023-05-12T07:56:13.456Z,9.54
2023-05-12T07:58:39.883Z,9.46
2023-05-12T08:01:06.300Z,9.54
2023-05-12T08:03:33.251Z,9.62
2023-05-12T08:05:59.949Z,9.58
2023-05-12T08:08:26.414Z,9.44
2023-05-12T08:10:52.882Z,9.46
2023-05-12T08:13:19.531Z,9.43
2023-05-12T08:15:45.899Z,9.31
2023-05-12T08:18:12.433Z,9.32
2023-05-12T08:20:38.986Z,9.24
2023-05-12T08:23:05.471Z,9.26
2023-05-12T08:25:31.989Z,9.15
2023-05-12T08:27:58.421Z,9.20
2023-05-12T08:30:24.875Z,9.18
2023-05-12T08:32:51.523Z,9.34
2023-05-12T08:35:18.070Z,9.39
2023-05-12T08:37:44.597Z,9.47
2023-05-12T08:40:31.355Z,9.61
2023-05-12T08:43:13.399Z,9.45
2023-05-12T08:45:40.177Z,9.58
2023-05-12T08:48:08.842Z,9.61
2023-05-12T08:50:38.563Z,9.79
2023-05-12T08:53:05.195Z,9.86
2023-05-12T08:55:33.801Z,9.80
2023-05-12T08:58:00.942Z,9.95
2023-05-12T09:00:27.419Z,10.13
2023-05-12T09:02:54.890Z,10.13
2023-05-12T09:05:22.187Z,10.37
2023-05-12T09:07:49.179Z,10.27
2023-05-12T09:10:26.356Z,10.26
2023-05-12T09:13:02.717Z,10.43
2023-05-12T09:15:32.199Z,10.17
2023-05-12T09:17:58.656Z,10.32
2023-05-12T09:20:31.973Z,10.16
2023-05-12T09:22:58.704Z,10.17
2023-05-12T09:25:25.137Z,10.02
2023-05-12T09:27:54.254Z,10.12
2023-05-12T09:30:28.957Z,10.01
2023-05-12T09:33:04.915Z,9.96
2023-05-12T09:35:31.286Z,9.98
2023-05-12T09:37:57.878Z,9.75
2023-05-12T09:40:24.353Z,9.88
2023-05-12T09:42:50.741Z,9.88
2023-05-12T09:45:17.130Z,9.91
2023-05-12T09:47:43.639Z,9.88
2023-05-12T09:50:10.350Z,9.62
2023-05-12T09:52:37.979Z,9.65
2023-05-12T09:55:08.149Z,9.64
2023-05-12T09:57:35.872Z,9.60
2023-05-12T10:00:03.944Z,9.94
2023-05-12T10:02:31.554Z,9.99
2023-05-12T10:04:58.304Z,9.83
2023-05-12T10:07:24.654Z,9.84
2023-05-12T10:09:51.162Z,9.65
2023-05-12T10:12:17.635Z,9.92
2023-05-12T10:14:44.105Z,10.06
2023-05-12T10:17:10.635Z,9.81
2023-05-12T10:19:37.072Z,9.68
2023-05-12T10:22:03.428Z,9.85
2023-05-12T10:24:29.851Z,9.81
2023-05-12T10:26:56.265Z,9.81
2023-05-12T10:29:23.162Z,9.86
2023-05-12T10:31:49.633Z,9.91
2023-05-12T10:34:16.739Z,10.01
2023-05-12T10:36:43.807Z,9.88
2023-05-12T10:39:12.789Z,10.15
2023-05-12T10:41:39.364Z,10.44
2023-05-12T10:44:05.845Z,10.87
2023-05-12T10:46:32.477Z,11.05
2023-05-12T10:49:02.668Z,11.04
2023-05-12T10:51:29.792Z,11.08
2023-05-12T10:53:57.092Z,10.93
2023-05-12T10:56:24.875Z,11.01
2023-05-12T10:59:07.892Z,11.06
2023-05-12T11:01:35.777Z,10.88
2023-05-12T11:04:13.159Z,10.91
2023-05-12T11:06:40.957Z,11.04
2023-05-12T11:09:09.031Z,10.49
2023-05-12T11:11:36.310Z,10.89
2023-05-12T11:14:02.910Z,11.14
2023-05-12T11:16:29.401Z,11.31
2023-05-12T11:19:05.411Z,11.01
2023-05-12T11:21:32.194Z,11.38
2023-05-12T11:23:59.025Z,11.45
2023-05-12T11:26:25.817Z,11.35
2023-05-12T11:28:52.243Z,11.64
2023-05-12T11:31:19.095Z,11.51
2023-05-12T11:33:45.625Z,11.88
2023-05-12T11:36:12.076Z,11.88
2023-05-12T11:38:38.474Z,11.88
2023-05-12T11:41:04.979Z,11.79
2023-05-12T11:43:31.383Z,11.84
2023-05-12T11:45:57.901Z,11.39
2023-05-12T11:48:32.057Z,11.45
2023-05-12T11:50:58.470Z,10.89
2023-05-12T11:53:25.561Z,10.78
2023-05-12T11:55:56.374Z,10.91
2023-05-12T11:58:23.518Z,10.86
2023-05-12T12:00:50.038Z,10.65
2023-05-12T12:03:16.943Z,10.57
2023-05-12T12:05:44.146Z,10.43
2023-05-12T12:08:14.891Z,10.32
2023-05-12T12:10:44.605Z,10.24
2023-05-12T12:13:11.228Z,10.09
2023-05-12T12:15:37.735Z,10.10
2023-05-12T12:18:04.390Z,10.21
2023-05-12T12:20:30.872Z,10.24
2023-05-12T12:22:57.257Z,10.26
2023-05-12T12:25:23.756Z,10.13
2023-05-12T12:27:50.265Z,9.97
2023-05-12T12:30:16.714Z,9.88
2023-05-12T12:32:43.380Z,10.07
2023-05-12T12:35:09.879Z,10.30
2023-05-12T12:37:36.256Z,10.44
2023-05-12T12:40:02.901Z,10.34
2023-05-12T12:42:29.482Z,10.12
2023-05-12T12:44:55.889Z,10.38
2023-05-12T12:47:22.379Z,10.30
2023-05-12T12:49:48.827Z,10.48
2023-05-12T12:52:15.299Z,10.48
2023-05-12T12:54:41.998Z,10.64
2023-05-12T12:57:08.387Z,10.70
2023-05-12T12:59:34.812Z,10.67
2023-05-12T13:02:01.432Z,10.89
2023-05-12T13:04:27.974Z,10.97
2023-05-12T13:06:54.365Z,11.03
2023-05-12T13:09:20.922Z,10.79
2023-05-12T13:11:47.568Z,10.96
2023-05-12T13:14:13.967Z,11.15
2023-05-12T13:16:40.456Z,10.94
2023-05-12T13:19:07.118Z,11.13
2023-05-12T13:21:33.756Z,11.32
2023-05-12T13:24:00.257Z,11.47
2023-05-12T13:26:26.708Z,11.48
2023-05-12T13:28:53.155Z,11.53
2023-05-12T13:31:19.692Z,11.35
2023-05-12T13:33:46.122Z,11.36
2023-05-12T13:36:12.668Z,11.26
2023-05-12T13:38:39.621Z,11.39
2023-05-12T13:41:06.243Z,11.39
2023-05-12T13:43:32.699Z,11.11
2023-05-12T13:45:59.262Z,10.91
2023-05-12T13:48:25.785Z,11.16
2023-05-12T13:50:52.255Z,11.14
2023-05-12T13:53:18.716Z,11.17
2023-05-12T13:55:45.143Z,11.24
2023-05-12T13:58:11.587Z,11.18
2023-05-12T14:00:38.048Z,11.26
2023-05-12T14:03:04.625Z,11.11
2023-05-12T14:05:31.269Z,11.19
2023-05-12T14:07:57.906Z,11.16
2023-05-12T14:10:24.370Z,11.10
2023-05-12T14:12:50.931Z,10.79
2023-05-12T14:17:47.336Z,11.03
2023-05-12T14:20:13.775Z,10.61
2023-05-12T14:22:40.352Z,10.72
2023-05-12T14:25:06.904Z,10.38
2023-05-12T14:27:33.268Z,10.70
2023-05-12T14:30:00.037Z,10.83
2023-05-12T14:32:26.603Z,10.77
2023-05-12T14:34:53.009Z,10.81
2023-05-12T14:37:19.491Z,10.67
2023-05-12T14:39:45.955Z,10.81
2023-05-12T14:42:12.466Z,10.92
2023-05-12T14:44:38.889Z,10.93
2023-05-12T14:47:07.454Z,10.86
2023-05-12T14:49:35.266Z,10.90
2023-05-12T14:52:01.722Z,10.91
2023-05-12T14:54:28.170Z,10.99
2023-05-12T14:56:54.584Z,11.05
2023-05-12T14:59:21.070Z,10.83
2023-05-12T15:01:47.650Z,11.05
2023-05-12T15:04:14.307Z,11.18
2023-05-12T15:06:40.795Z,11.00
2023-05-12T15:09:07.266Z,11.08
2023-05-12T15:11:33.843Z,11.31
2023-05-12T15:14:00.404Z,11.34
2023-05-12T15:16:26.912Z,11.23
2023-05-12T15:18:53.428Z,11.29
2023-05-12T15:21:20.139Z,11.19
2023-05-12T15:23:46.577Z,11.22
2023-05-12T15:26:26.889Z,11.14
2023-05-12T15:28:59.309Z,11.19
2023-05-12T15:31:25.856Z,11.12
2023-05-12T15:33:52.267Z,11.17
2023-05-12T15:36:18.765Z,11.25
2023-05-12T15:38:45.174Z,11.09
2023-05-12T15:41:11.629Z,11.26
2023-05-12T15:43:38.245Z,11.21
2023-05-12T15:46:05.021Z,11.20
2023-05-12T15:48:31.469Z,11.34
2023-05-12T15:50:57.968Z,11.31
2023-05-12T15:53:24.425Z,11.35
2023-05-12T15:55:58.633Z,11.38
2023-05-12T15:58:25.054Z,11.27
2023-05-12T16:00:53.196Z,11.26
2023-05-12T16:03:19.855Z,11.32
2023-05-12T16:05:46.325Z,11.17
2023-05-12T16:08:12.849Z,11.01
2023-05-12T16:10:39.422Z,10.93
2023-05-12T16:13:05.900Z,11.08
2023-05-12T16:15:32.358Z,11.15
2023-05-12T16:17:58.839Z,11.05
2023-05-12T16:20:25.320Z,11.18
2023-05-12T16:22:51.957Z,11.17
2023-05-12T16:25:18.588Z,11.19
2023-05-12T16:27:45.360Z,11.23
2023-05-12T16:30:11.928Z,11.06
2023-05-12T16:32:38.676Z,11.07
2023-05-12T16:35:05.689Z,10.90
2023-05-12T16:37:32.166Z,11.00
2023-05-12T16:39:58.779Z,10.97
2023-05-12T16:42:25.298Z,11.00
2023-05-12T16:44:54.712Z,11.14
2023-05-12T16:47:21.251Z,11.02
2023-05-12T16:49:47.783Z,11.23
2023-05-12T16:52:14.256Z,11.14
2023-05-12T16:54:40.833Z,11.13
2023-05-12T16:57:07.275Z,11.15
2023-05-12T16:59:33.748Z,11.17
2023-05-12T17:02:00.538Z,11.15
2023-05-12T17:04:27.074Z,11.09
2023-05-12T17:06:53.516Z,11.07
2023-05-12T17:09:20.236Z,11.09
2023-05-12T17:11:46.631Z,11.02
2023-05-12T17:14:13.041Z,11.05
2023-05-12T17:16:39.714Z,10.98
2023-05-12T17:21:35.616Z,10.94
2023-05-12T17:24:02.128Z,10.77
2023-05-12T17:26:28.526Z,10.75
2023-05-12T17:28:55.132Z,10.71
2023-05-12T17:31:21.765Z,10.54
2023-05-12T17:33:48.287Z,10.71
2023-05-12T17:36:14.794Z,10.72
2023-05-12T17:38:41.336Z,10.68
2023-05-12T17:41:07.974Z,10.47
2023-05-12T17:43:34.393Z,10.49
2023-05-12T17:46:00.827Z,10.54
2023-05-12T17:48:27.268Z,10.39
2023-05-12T17:50:53.749Z,10.38
2023-05-12T17:53:20.251Z,10.33
2023-05-12T17:55:46.694Z,10.28
2023-05-12T17:58:13.148Z,10.23
2023-05-12T18:00:39.618Z,10.09
2023-05-12T18:03:06.184Z,10.12
2023-05-12T18:05:33.845Z,9.99
2023-05-12T18:08:01.411Z,10.07
2023-05-12T18:10:27.826Z,9.96
2023-05-12T18:12:55.536Z,10.00
2023-05-12T18:15:22.436Z,10.03
2023-05-12T18:17:48.986Z,9.80
2023-05-12T18:20:15.499Z,9.86
2023-05-12T18:22:42.096Z,9.83
2023-05-12T18:25:08.781Z,9.90
2023-05-12T18:27:35.299Z,9.76
2023-05-12T18:30:01.863Z,9.73
2023-05-12T18:32:28.583Z,9.71
2023-05-12T18:34:55.111Z,9.66
2023-05-12T18:37:21.930Z,9.68
2023-05-12T18:39:48.302Z,9.62
2023-05-12T18:42:14.827Z,9.70
2023-05-12T18:44:41.393Z,9.61
2023-05-12T18:47:08.109Z,9.56
2023-05-12T18:49:34.865Z,9.58
2023-05-12T18:52:01.348Z,9.52
2023-05-12T18:54:27.778Z,9.53
2023-05-12T18:56:54.224Z,9.48
2023-05-12T18:59:20.735Z,9.48
2023-05-12T19:01:47.271Z,9.42
2023-05-12T19:04:14.129Z,9.32
2023-05-12T19:06:40.598Z,9.29
2023-05-12T19:09:07.055Z,9.31
2023-05-12T19:11:33.498Z,9.23
2023-05-12T19:13:59.923Z,9.25
2023-05-12T19:16:26.348Z,9.20
2023-05-12T19:18:52.870Z,9.14
2023-05-12T19:21:19.547Z,9.17
2023-05-12T19:23:45.964Z,9.16
2023-05-12T19:26:12.481Z,9.18
2023-05-12T19:28:38.946Z,9.13
2023-05-12T19:31:05.400Z,9.18
2023-05-12T19:33:31.877Z,9.20
2023-05-12T19:35:58.432Z,9.22
2023-05-12T19:38:25.027Z,9.17
2023-05-12T19:40:51.521Z,9.08
2023-05-12T19:43:18.089Z,9.03
2023-05-12T19:45:44.575Z,9.15
2023-05-12T19:48:11.407Z,9.06
2023-05-12T19:50:37.951Z,9.09
2023-05-12T19:53:04.430Z,9.08
2023-05-12T19:55:30.898Z,9.03
2023-05-12T19:57:57.374Z,8.91
2023-05-12T20:00:23.809Z,8.85
2023-05-12T20:02:50.450Z,8.85
2023-05-12T20:05:17.117Z,8.73
2023-05-12T20:07:43.531Z,8.75
2023-05-12T20:10:10.042Z,8.78
2023-05-12T20:12:36.685Z,8.81
2023-05-12T20:15:03.328Z,8.83
2023-05-12T20:17:29.912Z,8.67
2023-05-12T20:19:56.462Z,8.65
2023-05-12T20:22:22.921Z,8.65
2023-05-12T20:24:49.462Z,8.59
2023-05-12T20:27:15.980Z,8.55
2023-05-12T20:29:42.477Z,8.54
2023-05-12T20:32:08.965Z,8.50
2023-05-12T20:34:35.453Z,8.53
2023-05-12T20:37:01.873Z,8.41
2023-05-12T20:39:28.339Z,8.39
2023-05-12T20:41:54.823Z,8.25
2023-05-12T20:44:21.230Z,8.30
2023-05-12T20:46:47.757Z,8.30
2023-05-12T20:49:14.230Z,8.32
2023-05-12T20:51:40.600Z,8.33
2023-05-12T20:54:06.993Z,8.29
2023-05-12T20:56:33.526Z,8.17
2023-05-12T20:58:59.928Z,8.12
2023-05-12T21:01:26.484Z,8.13
2023-05-12T21:03:53.053Z,8.20
2023-05-12T21:06:19.524Z,8.25
2023-05-12T21:08:45.877Z,8.23
2023-05-12T21:11:12.937Z,8.20
2023-05-12T21:13:39.403Z,8.21
2023-05-12T21:16:05.888Z,8.12
2023-05-12T21:18:32.524Z,8.22
2023-05-12T21:20:59.047Z,8.09
2023-05-12T21:23:25.515Z,8.09
2023-05-12T21:25:54.931Z,8.07
2023-05-12T21:28:21.464Z,7.96
2023-05-12T21:30:47.888Z,8.03
2023-05-12T21:33:14.329Z,7.88
2023-05-12T21:35:40.705Z,7.88
2023-05-12T21:38:07.107Z,7.96
2023-05-12T21:40:33.682Z,8.04
2023-05-12T21:43:00.227Z,8.05
2023-05-12T21:45:26.655Z,7.89
2023-05-12T21:47:53.239Z,8.02
2023-05-12T21:50:20.121Z,7.92
2023-05-12T21:52:47.059Z,7.91
2023-05-12T21:55:13.687Z,7.89
2023-05-12T21:57:40.302Z,8.00
2023-05-12T22:00:07.024Z,7.85
2023-05-12T22:02:33.775Z,7.84
2023-05-12T22:05:00.331Z,7.98
2023-05-12T22:07:26.860Z,7.94
2023-05-12T22:09:53.370Z,7.85
2023-05-12T22:12:19.747Z,7.84
2023-05-12T22:14:46.176Z,7.86
2023-05-12T22:17:12.752Z,7.95
2023-05-12T22:19:39.264Z,7.88
2023-05-12T22:22:05.937Z,7.95
2023-05-12T22:24:32.499Z,7.94
2023-05-12T22:26:58.982Z,7.92
2023-05-12T22:29:25.500Z,7.73
2023-05-12T22:31:51.938Z,7.77
2023-05-12T22:34:18.348Z,7.82
2023-05-12T22:36:45.109Z,7.81
2023-05-12T22:39:11.610Z,7.78
2023-05-12T22:41:38.024Z,7.81
2023-05-12T22:44:04.804Z,7.71
2023-05-12T22:46:31.414Z,7.68
2023-05-12T22:48:57.918Z,7.67
2023-05-12T22:51:24.358Z,7.76
2023-05-12T22:53:50.859Z,7.69
2023-05-12T22:56:17.244Z,7.74
2023-05-12T22:58:43.715Z,7.76
2023-05-12T23:01:10.370Z,7.72
2023-05-12T23:03:36.999Z,7.71
2023-05-12T23:06:03.442Z,7.74
2023-05-12T23:08:30.016Z,7.76
2023-05-12T23:10:56.535Z,7.78
2023-05-12T23:13:22.987Z,7.70
2023-05-12T23:15:49.501Z,7.67
2023-05-12T23:18:15.882Z,7.74
2023-05-12T23:20:42.282Z,7.75
2023-05-12T23:23:08.785Z,7.83
2023-05-12T23:25:35.201Z,7.66
2023-05-12T23:28:01.583Z,7.72
2023-05-12T23:30:28.038Z,7.73
2023-05-12T23:32:54.580Z,7.72
2023-05-12T23:35:21.116Z,7.68
2023-05-12T23:37:47.677Z,7.65
2023-05-12T23:40:14.062Z,7.65
2023-05-12T23:42:40.495Z,7.68
2023-05-12T23:45:07.176Z,7.67
2023-05-12T23:47:33.652Z,7.57
2023-05-12T23:50:00.228Z,7.61
2023-05-12T23:52:26.689Z,7.58
2023-05-12T23:54:53.100Z,7.52
2023-05-12T23:57:19.614Z,7.60
2023-05-12T23:59:46.196Z,7.62
